CYZW

Details ICAO CYZW (YZW)
Name TESLIN
Region Canada
Timezone America/Whitehorse (UTC-7.0)
Plans Departing 2
Arriving 4
Stats Elevation 2,313 ft / 705 m (AMSL)
Location 60.172778° -132.742779°
Runways 1
Magnetic Variation 19.607° E
Sunrise 2018-05-20 12:01:30 UTC / 2018-05-20 05:01:30 Local
Sunset 2018-05-21 05:36:23 UTC / 2018-05-20 22:36:23 Local
Advertisement - Login to hide

Runways

ID Width Length Bearing (true) Bearing (mag) Surface Threshold Offset Overrun Length
08 100 ft / 30 m 4,984 ft / 1,519 m 106.22° 86.61° Gravel 0 ft / 0 m 0 ft / 0 m
26 100 ft / 30 m 4,984 ft / 1,519 m 286.24° 266.63° Gravel 0 ft / 0 m 0 ft / 0 m

Map

Weather


0- 5 10 15 20 25 30 35+ Temperature / ° C

Clouds and Precipitation
Forecast for 2018-05-21 00:00 UTC. Updated 2 hours ago

Ground ~20,000 ft ~40,000 ft Winds

METAR

CYZW 210000Z 32003KT 20SM SCT035 OVC060 14/08 A2973 RMK SC4SC4 CLIMAT 15.8/9.4/0.4MM/LAST STFD OBS/NXT 211600Z WND ESTD SLP089 DENSITY ALT 3000FT

TAF

TAF AMD TAF AMD CYZW 202029Z 2020/2024 VRB03KT P6SM SCT050 BKN070 TEMPO 2020/2024 4SM -SHRA BR OVC050 RMK NXT FCST WILL BE ISSUED AT 211745Z

Frequencies

Unicom 122.10 MHz MANDATORY FREQ
Warning: Do not use this data for real-world aviation or navigation. No guarantee of current accuracy is given.